sensor_id;sensor_type;location;lat;lon;timestamp;temperature;humidity
35373;DHT22;21476;51.652;7.852;2022-08-03T00:01:37;18.70;99.90
35373;DHT22;21476;51.652;7.852;2022-08-03T00:04:05;18.70;99.90
35373;DHT22;21476;51.652;7.852;2022-08-03T00:06:31;18.70;99.90
35373;DHT22;21476;51.652;7.852;2022-08-03T00:08:56;18.70;99.90
35373;DHT22;21476;51.652;7.852;2022-08-03T00:11:22;18.80;99.90
35373;DHT22;21476;51.652;7.852;2022-08-03T00:13:48;18.70;99.90
35373;DHT22;21476;51.652;7.852;2022-08-03T00:16:13;18.80;99.90
35373;DHT22;21476;51.652;7.852;2022-08-03T00:18:39;18.70;99.90
35373;DHT22;21476;51.652;7.852;2022-08-03T00:21:05;18.70;99.90
35373;DHT22;21476;51.652;7.852;2022-08-03T00:23:31;18.80;99.90
35373;DHT22;21476;51.652;7.852;2022-08-03T00:25:57;18.70;99.90
35373;DHT22;21476;51.652;7.852;2022-08-03T00:28:23;18.70;99.90
35373;DHT22;21476;51.652;7.852;2022-08-03T00:30:49;18.60;99.90
35373;DHT22;21476;51.652;7.852;2022-08-03T00:33:14;18.60;99.90
35373;DHT22;21476;51.652;7.852;2022-08-03T00:35:40;18.60;99.90
35373;DHT22;21476;51.652;7.852;2022-08-03T00:38:06;18.50;99.90
35373;DHT22;21476;51.652;7.852;2022-08-03T00:40:32;18.50;99.90
35373;DHT22;21476;51.652;7.852;2022-08-03T00:43:00;18.60;99.90
35373;DHT22;21476;51.652;7.852;2022-08-03T00:45:31;18.60;99.90
35373;DHT22;21476;51.652;7.852;2022-08-03T00:47:57;18.50;99.90
35373;DHT22;21476;51.652;7.852;2022-08-03T00:50:25;18.50;99.90
35373;DHT22;21476;51.652;7.852;2022-08-03T00:52:53;18.50;99.90
35373;DHT22;21476;51.652;7.852;2022-08-03T00:55:19;18.50;99.90
35373;DHT22;21476;51.652;7.852;2022-08-03T00:57:45;18.50;99.90
35373;DHT22;21476;51.652;7.852;2022-08-03T01:00:13;18.50;99.90
35373;DHT22;21476;51.652;7.852;2022-08-03T01:02:39;18.40;99.90
35373;DHT22;21476;51.652;7.852;2022-08-03T01:05:06;18.40;99.90
35373;DHT22;21476;51.652;7.852;2022-08-03T01:10:38;18.40;99.90
35373;DHT22;21476;51.652;7.852;2022-08-03T01:15:49;18.30;99.90
35373;DHT22;21476;51.652;7.852;2022-08-03T01:18:27;18.30;99.90
35373;DHT22;21476;51.652;7.852;2022-08-03T01:20:56;18.30;99.90
35373;DHT22;21476;51.652;7.852;2022-08-03T01:31:44;18.30;99.90
35373;DHT22;21476;51.652;7.852;2022-08-03T01:34:15;18.30;99.90
35373;DHT22;21476;51.652;7.852;2022-08-03T01:36:49;18.30;99.90
35373;DHT22;21476;51.652;7.852;2022-08-03T01:39:16;18.40;99.90
35373;DHT22;21476;51.652;7.852;2022-08-03T01:41:50;18.30;99.90
35373;DHT22;21476;51.652;7.852;2022-08-03T01:44:17;18.40;99.90
35373;DHT22;21476;51.652;7.852;2022-08-03T01:46:45;18.30;99.90
35373;DHT22;21476;51.652;7.852;2022-08-03T01:49:14;18.40;99.90
35373;DHT22;21476;51.652;7.852;2022-08-03T01:51:42;18.40;99.90
35373;DHT22;21476;51.652;7.852;2022-08-03T01:54:12;18.30;99.90
35373;DHT22;21476;51.652;7.852;2022-08-03T01:56:39;18.30;99.90
35373;DHT22;21476;51.652;7.852;2022-08-03T01:59:06;18.30;99.90
35373;DHT22;21476;51.652;7.852;2022-08-03T02:01:34;18.20;99.90
35373;DHT22;21476;51.652;7.852;2022-08-03T02:04:02;18.10;99.90
35373;DHT22;21476;51.652;7.852;2022-08-03T02:06:30;18.00;99.90
35373;DHT22;21476;51.652;7.852;2022-08-03T02:08:59;18.00;99.90
35373;DHT22;21476;51.652;7.852;2022-08-03T02:11:26;18.00;99.90
35373;DHT22;21476;51.652;7.852;2022-08-03T02:13:53;17.90;99.90
35373;DHT22;21476;51.652;7.852;2022-08-03T02:16:21;17.90;99.90
35373;DHT22;21476;51.652;7.852;2022-08-03T02:18:47;17.90;99.90
35373;DHT22;21476;51.652;7.852;2022-08-03T02:21:14;17.90;99.90
35373;DHT22;21476;51.652;7.852;2022-08-03T02:23:40;17.90;99.90
35373;DHT22;21476;51.652;7.852;2022-08-03T02:26:10;17.80;99.90
35373;DHT22;21476;51.652;7.852;2022-08-03T02:28:40;17.80;99.90
35373;DHT22;21476;51.652;7.852;2022-08-03T02:31:12;17.80;99.90
35373;DHT22;21476;51.652;7.852;2022-08-03T02:33:42;17.80;99.90
35373;DHT22;21476;51.652;7.852;2022-08-03T02:36:10;17.80;99.90
35373;DHT22;21476;51.652;7.852;2022-08-03T02:38:39;17.80;99.90
35373;DHT22;21476;51.652;7.852;2022-08-03T02:41:14;17.70;99.90
35373;DHT22;21476;51.652;7.852;2022-08-03T02:43:42;17.70;99.90
35373;DHT22;21476;51.652;7.852;2022-08-03T02:46:12;17.70;99.90
35373;DHT22;21476;51.652;7.852;2022-08-03T02:48:40;17.60;99.90
35373;DHT22;21476;51.652;7.852;2022-08-03T02:51:08;17.60;99.90
35373;DHT22;21476;51.652;7.852;2022-08-03T02:53:34;17.60;99.90
35373;DHT22;21476;51.652;7.852;2022-08-03T02:56:01;17.60;99.90
35373;DHT22;21476;51.652;7.852;2022-08-03T02:58:30;17.60;99.90
35373;DHT22;21476;51.652;7.852;2022-08-03T03:00:56;17.50;99.90
35373;DHT22;21476;51.652;7.852;2022-08-03T03:03:23;17.40;99.90
35373;DHT22;21476;51.652;7.852;2022-08-03T03:05:50;17.40;99.90
35373;DHT22;21476;51.652;7.852;2022-08-03T03:08:18;17.40;99.90
35373;DHT22;21476;51.652;7.852;2022-08-03T03:10:45;17.40;99.90
35373;DHT22;21476;51.652;7.852;2022-08-03T03:13:13;17.40;99.90
35373;DHT22;21476;51.652;7.852;2022-08-03T03:15:40;17.40;99.90
35373;DHT22;21476;51.652;7.852;2022-08-03T03:18:06;17.40;99.90
35373;DHT22;21476;51.652;7.852;2022-08-03T03:20:36;17.40;99.90
35373;DHT22;21476;51.652;7.852;2022-08-03T03:23:04;17.40;99.90
35373;DHT22;21476;51.652;7.852;2022-08-03T03:25:31;17.40;99.90
35373;DHT22;21476;51.652;7.852;2022-08-03T03:28:01;17.30;99.90
35373;DHT22;21476;51.652;7.852;2022-08-03T03:30:27;17.30;99.90
35373;DHT22;21476;51.652;7.852;2022-08-03T03:32:54;17.30;99.90
35373;DHT22;21476;51.652;7.852;2022-08-03T03:35:20;17.20;99.90
35373;DHT22;21476;51.652;7.852;2022-08-03T03:37:46;17.20;99.90
35373;DHT22;21476;51.652;7.852;2022-08-03T03:40:11;17.20;99.90
35373;DHT22;21476;51.652;7.852;2022-08-03T03:42:38;17.10;99.90
35373;DHT22;21476;51.652;7.852;2022-08-03T03:45:07;17.10;99.90
35373;DHT22;21476;51.652;7.852;2022-08-03T03:47:34;17.10;99.90
35373;DHT22;21476;51.652;7.852;2022-08-03T03:50:01;17.00;99.90
35373;DHT22;21476;51.652;7.852;2022-08-03T03:52:27;16.90;99.90
35373;DHT22;21476;51.652;7.852;2022-08-03T03:54:52;16.90;99.90
35373;DHT22;21476;51.652;7.852;2022-08-03T03:57:18;16.80;99.90
35373;DHT22;21476;51.652;7.852;2022-08-03T03:59:44;16.80;99.90
35373;DHT22;21476;51.652;7.852;2022-08-03T04:02:11;16.80;99.90
35373;DHT22;21476;51.652;7.852;2022-08-03T04:04:37;16.80;99.90
35373;DHT22;21476;51.652;7.852;2022-08-03T04:07:25;16.90;99.90
35373;DHT22;21476;51.652;7.852;2022-08-03T04:10:13;17.10;99.90
35373;DHT22;21476;51.652;7.852;2022-08-03T04:12:59;17.10;99.90
35373;DHT22;21476;51.652;7.852;2022-08-03T04:15:27;17.10;99.90
35373;DHT22;21476;51.652;7.852;2022-08-03T04:17:56;17.30;99.90
35373;DHT22;21476;51.652;7.852;2022-08-03T04:20:27;17.20;99.90
35373;DHT22;21476;51.652;7.852;2022-08-03T04:22:55;17.30;99.90
35373;DHT22;21476;51.652;7.852;2022-08-03T04:25:24;17.40;99.90
35373;DHT22;21476;51.652;7.852;2022-08-03T04:27:51;17.40;99.90
35373;DHT22;21476;51.652;7.852;2022-08-03T04:30:21;17.60;99.90
35373;DHT22;21476;51.652;7.852;2022-08-03T04:32:48;17.70;99.90
35373;DHT22;21476;51.652;7.852;2022-08-03T04:35:17;18.00;99.90
35373;DHT22;21476;51.652;7.852;2022-08-03T04:37:46;18.60;99.90
35373;DHT22;21476;51.652;7.852;2022-08-03T04:40:14;19.10;99.90
35373;DHT22;21476;51.652;7.852;2022-08-03T04:42:42;19.60;99.90
35373;DHT22;21476;51.652;7.852;2022-08-03T04:45:11;20.30;99.90
35373;DHT22;21476;51.652;7.852;2022-08-03T04:47:38;21.20;99.90
35373;DHT22;21476;51.652;7.852;2022-08-03T04:50:05;22.00;99.90
35373;DHT22;21476;51.652;7.852;2022-08-03T04:52:33;22.60;99.90
35373;DHT22;21476;51.652;7.852;2022-08-03T04:54:59;23.70;99.90
35373;DHT22;21476;51.652;7.852;2022-08-03T04:57:25;24.60;99.90
35373;DHT22;21476;51.652;7.852;2022-08-03T04:59:54;25.10;99.90
35373;DHT22;21476;51.652;7.852;2022-08-03T05:02:21;26.00;99.90
35373;DHT22;21476;51.652;7.852;2022-08-03T05:04:47;26.50;99.90
35373;DHT22;21476;51.652;7.852;2022-08-03T05:07:14;26.60;99.90
35373;DHT22;21476;51.652;7.852;2022-08-03T05:09:40;26.40;99.90
35373;DHT22;21476;51.652;7.852;2022-08-03T05:12:06;26.00;99.90
35373;DHT22;21476;51.652;7.852;2022-08-03T05:14:33;25.80;99.90
35373;DHT22;21476;51.652;7.852;2022-08-03T05:16:58;24.70;99.90
35373;DHT22;21476;51.652;7.852;2022-08-03T05:19:24;24.40;99.90
35373;DHT22;21476;51.652;7.852;2022-08-03T05:21:50;24.50;99.90
35373;DHT22;21476;51.652;7.852;2022-08-03T05:24:16;24.40;99.90
35373;DHT22;21476;51.652;7.852;2022-08-03T05:26:41;24.40;99.90
35373;DHT22;21476;51.652;7.852;2022-08-03T05:29:07;24.10;99.90
35373;DHT22;21476;51.652;7.852;2022-08-03T05:31:32;24.40;99.90
35373;DHT22;21476;51.652;7.852;2022-08-03T05:33:58;24.40;99.90
35373;DHT22;21476;51.652;7.852;2022-08-03T05:36:24;24.90;99.90
35373;DHT22;21476;51.652;7.852;2022-08-03T05:38:49;25.00;99.90
35373;DHT22;21476;51.652;7.852;2022-08-03T05:41:15;25.00;99.90
35373;DHT22;21476;51.652;7.852;2022-08-03T05:43:41;24.60;99.90
35373;DHT22;21476;51.652;7.852;2022-08-03T05:46:07;24.70;99.90
35373;DHT22;21476;51.652;7.852;2022-08-03T05:48:32;24.60;99.90
35373;DHT22;21476;51.652;7.852;2022-08-03T05:50:58;24.50;99.90
35373;DHT22;21476;51.652;7.852;2022-08-03T05:53:23;24.30;99.90
35373;DHT22;21476;51.652;7.852;2022-08-03T05:55:50;24.80;99.90
35373;DHT22;21476;51.652;7.852;2022-08-03T05:58:16;25.30;99.90
35373;DHT22;21476;51.652;7.852;2022-08-03T06:00:42;25.60;99.90
35373;DHT22;21476;51.652;7.852;2022-08-03T06:03:07;26.00;99.90
35373;DHT22;21476;51.652;7.852;2022-08-03T06:05:33;26.50;99.90
35373;DHT22;21476;51.652;7.852;2022-08-03T06:08:04;26.70;99.90
35373;DHT22;21476;51.652;7.852;2022-08-03T06:10:29;26.90;99.90
35373;DHT22;21476;51.652;7.852;2022-08-03T06:12:55;27.30;99.90
35373;DHT22;21476;51.652;7.852;2022-08-03T06:15:21;27.30;99.90
35373;DHT22;21476;51.652;7.852;2022-08-03T06:17:47;27.40;99.90
35373;DHT22;21476;51.652;7.852;2022-08-03T06:20:16;27.50;99.90
35373;DHT22;21476;51.652;7.852;2022-08-03T06:22:41;27.60;99.90
35373;DHT22;21476;51.652;7.852;2022-08-03T06:25:07;27.60;99.90
35373;DHT22;21476;51.652;7.852;2022-08-03T06:27:33;27.60;99.90
35373;DHT22;21476;51.652;7.852;2022-08-03T06:29:59;28.20;99.90
35373;DHT22;21476;51.652;7.852;2022-08-03T06:32:25;28.20;99.90
35373;DHT22;21476;51.652;7.852;2022-08-03T06:34:50;28.20;99.90
35373;DHT22;21476;51.652;7.852;2022-08-03T06:37:16;28.60;99.90
35373;DHT22;21476;51.652;7.852;2022-08-03T06:39:42;28.90;99.90
35373;DHT22;21476;51.652;7.852;2022-08-03T06:42:08;28.80;99.90
35373;DHT22;21476;51.652;7.852;2022-08-03T06:44:35;28.70;99.90
35373;DHT22;21476;51.652;7.852;2022-08-03T06:47:03;28.90;99.90
35373;DHT22;21476;51.652;7.852;2022-08-03T06:49:28;28.90;99.90
35373;DHT22;21476;51.652;7.852;2022-08-03T06:51:54;29.20;99.90
35373;DHT22;21476;51.652;7.852;2022-08-03T06:54:21;29.50;99.90
35373;DHT22;21476;51.652;7.852;2022-08-03T06:56:47;29.20;99.90
35373;DHT22;21476;51.652;7.852;2022-08-03T06:59:12;29.40;99.90
35373;DHT22;21476;51.652;7.852;2022-08-03T07:01:38;29.50;99.90
35373;DHT22;21476;51.652;7.852;2022-08-03T07:04:04;30.00;99.90
35373;DHT22;21476;51.652;7.852;2022-08-03T07:06:30;29.90;99.90
35373;DHT22;21476;51.652;7.852;2022-08-03T07:08:56;29.90;99.90
35373;DHT22;21476;51.652;7.852;2022-08-03T07:11:22;30.10;99.90
35373;DHT22;21476;51.652;7.852;2022-08-03T07:13:47;30.40;99.90
35373;DHT22;21476;51.652;7.852;2022-08-03T07:16:13;30.40;99.90
35373;DHT22;21476;51.652;7.852;2022-08-03T07:18:39;30.50;99.90
35373;DHT22;21476;51.652;7.852;2022-08-03T07:21:04;30.60;99.90
35373;DHT22;21476;51.652;7.852;2022-08-03T07:23:30;30.70;99.90
35373;DHT22;21476;51.652;7.852;2022-08-03T07:25:56;30.90;99.90
35373;DHT22;21476;51.652;7.852;2022-08-03T07:28:21;31.20;99.90
35373;DHT22;21476;51.652;7.852;2022-08-03T07:30:47;31.30;99.90
35373;DHT22;21476;51.652;7.852;2022-08-03T07:33:13;31.20;99.90
35373;DHT22;21476;51.652;7.852;2022-08-03T07:35:39;31.40;99.90
35373;DHT22;21476;51.652;7.852;2022-08-03T07:38:05;31.70;99.90
35373;DHT22;21476;51.652;7.852;2022-08-03T07:40:31;31.80;99.90
35373;DHT22;21476;51.652;7.852;2022-08-03T07:42:56;31.90;99.90
35373;DHT22;21476;51.652;7.852;2022-08-03T07:45:22;32.20;99.90
35373;DHT22;21476;51.652;7.852;2022-08-03T07:47:53;32.10;99.90
35373;DHT22;21476;51.652;7.852;2022-08-03T07:50:31;32.30;99.90
35373;DHT22;21476;51.652;7.852;2022-08-03T07:58:57;32.30;98.90
35373;DHT22;21476;51.652;7.852;2022-08-03T08:01:52;32.30;99.00
35373;DHT22;21476;51.652;7.852;2022-08-03T08:04:18;32.20;99.30
35373;DHT22;21476;51.652;7.852;2022-08-03T08:06:50;32.50;99.10
35373;DHT22;21476;51.652;7.852;2022-08-03T08:09:16;32.50;99.20
35373;DHT22;21476;51.652;7.852;2022-08-03T08:11:48;32.50;99.10
35373;DHT22;21476;51.652;7.852;2022-08-03T08:14:13;32.70;98.70
35373;DHT22;21476;51.652;7.852;2022-08-03T08:16:47;33.00;98.40
35373;DHT22;21476;51.652;7.852;2022-08-03T08:19:14;32.90;97.60
35373;DHT22;21476;51.652;7.852;2022-08-03T08:21:44;33.00;98.10
35373;DHT22;21476;51.652;7.852;2022-08-03T08:24:13;33.20;98.40
35373;DHT22;21476;51.652;7.852;2022-08-03T08:26:59;33.40;97.10
35373;DHT22;21476;51.652;7.852;2022-08-03T08:29:26;33.50;95.90
35373;DHT22;21476;51.652;7.852;2022-08-03T08:32:05;33.70;95.90
35373;DHT22;21476;51.652;7.852;2022-08-03T08:34:31;33.90;94.30
35373;DHT22;21476;51.652;7.852;2022-08-03T08:36:57;33.90;94.40
35373;DHT22;21476;51.652;7.852;2022-08-03T08:39:31;33.90;93.90
35373;DHT22;21476;51.652;7.852;2022-08-03T08:41:56;33.70;94.10
35373;DHT22;21476;51.652;7.852;2022-08-03T08:44:22;33.80;94.10
35373;DHT22;21476;51.652;7.852;2022-08-03T08:46:52;34.10;93.80
35373;DHT22;21476;51.652;7.852;2022-08-03T08:49:22;34.00;93.60
35373;DHT22;21476;51.652;7.852;2022-08-03T08:51:57;34.00;93.60
35373;DHT22;21476;51.652;7.852;2022-08-03T08:54:25;34.00;93.80
35373;DHT22;21476;51.652;7.852;2022-08-03T08:56:55;34.10;93.50
35373;DHT22;21476;51.652;7.852;2022-08-03T08:59:27;34.00;93.50
35373;DHT22;21476;51.652;7.852;2022-08-03T09:02:02;34.00;93.10
35373;DHT22;21476;51.652;7.852;2022-08-03T09:04:31;34.00;93.50
35373;DHT22;21476;51.652;7.852;2022-08-03T09:06:57;34.30;93.80
35373;DHT22;21476;51.652;7.852;2022-08-03T09:09:25;34.50;92.00
35373;DHT22;21476;51.652;7.852;2022-08-03T09:12:04;34.60;92.10
35373;DHT22;21476;51.652;7.852;2022-08-03T09:14:32;34.90;91.80
35373;DHT22;21476;51.652;7.852;2022-08-03T09:16:59;35.20;91.10
35373;DHT22;21476;51.652;7.852;2022-08-03T09:19:32;35.20;91.70
35373;DHT22;21476;51.652;7.852;2022-08-03T09:22:19;35.30;91.30
35373;DHT22;21476;51.652;7.852;2022-08-03T09:24:55;34.90;90.40
35373;DHT22;21476;51.652;7.852;2022-08-03T09:27:21;34.80;90.80
35373;DHT22;21476;51.652;7.852;2022-08-03T09:30:03;34.80;90.30
35373;DHT22;21476;51.652;7.852;2022-08-03T09:32:39;35.10;90.20
35373;DHT22;21476;51.652;7.852;2022-08-03T09:35:05;35.40;89.10
35373;DHT22;21476;51.652;7.852;2022-08-03T09:37:31;35.40;89.20
35373;DHT22;21476;51.652;7.852;2022-08-03T09:40:03;35.40;88.30
35373;DHT22;21476;51.652;7.852;2022-08-03T09:42:35;35.10;88.80
35373;DHT22;21476;51.652;7.852;2022-08-03T09:45:04;35.20;89.20
35373;DHT22;21476;51.652;7.852;2022-08-03T09:47:41;35.10;89.20
35373;DHT22;21476;51.652;7.852;2022-08-03T09:50:08;35.20;87.40
35373;DHT22;21476;51.652;7.852;2022-08-03T09:52:38;35.40;87.20
35373;DHT22;21476;51.652;7.852;2022-08-03T09:55:17;35.30;85.50
35373;DHT22;21476;51.652;7.852;2022-08-03T09:57:47;35.40;86.30
35373;DHT22;21476;51.652;7.852;2022-08-03T10:00:15;35.50;85.70
35373;DHT22;21476;51.652;7.852;2022-08-03T10:02:45;35.60;85.80
35373;DHT22;21476;51.652;7.852;2022-08-03T10:05:12;35.80;84.80
35373;DHT22;21476;51.652;7.852;2022-08-03T10:07:45;35.70;84.30
35373;DHT22;21476;51.652;7.852;2022-08-03T10:10:13;36.00;83.60
35373;DHT22;21476;51.652;7.852;2022-08-03T10:12:42;35.50;82.70
35373;DHT22;21476;51.652;7.852;2022-08-03T10:15:09;35.40;81.40
35373;DHT22;21476;51.652;7.852;2022-08-03T10:17:38;35.40;83.00
35373;DHT22;21476;51.652;7.852;2022-08-03T10:20:12;35.30;83.70
35373;DHT22;21476;51.652;7.852;2022-08-03T10:22:39;35.30;82.80
35373;DHT22;21476;51.652;7.852;2022-08-03T10:28:14;35.90;82.90
35373;DHT22;21476;51.652;7.852;2022-08-03T10:30:47;35.90;81.90
35373;DHT22;21476;51.652;7.852;2022-08-03T10:33:23;36.00;81.40
35373;DHT22;21476;51.652;7.852;2022-08-03T10:36:03;35.90;80.00
35373;DHT22;21476;51.652;7.852;2022-08-03T10:38:45;36.20;78.80
35373;DHT22;21476;51.652;7.852;2022-08-03T10:41:12;36.10;78.90
35373;DHT22;21476;51.652;7.852;2022-08-03T10:43:50;35.80;77.90
35373;DHT22;21476;51.652;7.852;2022-08-03T10:46:18;35.90;75.60
35373;DHT22;21476;51.652;7.852;2022-08-03T10:48:48;35.70;76.70
35373;DHT22;21476;51.652;7.852;2022-08-03T10:51:20;35.50;77.80
35373;DHT22;21476;51.652;7.852;2022-08-03T10:53:46;35.10;78.70
35373;DHT22;21476;51.652;7.852;2022-08-03T10:59:15;36.00;78.50
35373;DHT22;21476;51.652;7.852;2022-08-03T11:02:02;36.40;78.50
35373;DHT22;21476;51.652;7.852;2022-08-03T11:04:36;36.50;77.80
35373;DHT22;21476;51.652;7.852;2022-08-03T11:09:53;36.70;78.40
35373;DHT22;21476;51.652;7.852;2022-08-03T11:12:27;36.50;76.60
35373;DHT22;21476;51.652;7.852;2022-08-03T11:14:55;36.00;76.90
35373;DHT22;21476;51.652;7.852;2022-08-03T11:17:21;35.90;78.10
35373;DHT22;21476;51.652;7.852;2022-08-03T11:19:52;35.70;77.50
35373;DHT22;21476;51.652;7.852;2022-08-03T11:22:19;35.70;75.60
35373;DHT22;21476;51.652;7.852;2022-08-03T11:35:21;36.10;77.30
35373;DHT22;21476;51.652;7.852;2022-08-03T11:40:35;36.40;77.20
35373;DHT22;21476;51.652;7.852;2022-08-03T11:43:02;36.60;76.50
35373;DHT22;21476;51.652;7.852;2022-08-03T11:45:31;36.50;76.70
35373;DHT22;21476;51.652;7.852;2022-08-03T11:48:01;36.50;75.20
35373;DHT22;21476;51.652;7.852;2022-08-03T11:50:35;36.80;76.00
35373;DHT22;21476;51.652;7.852;2022-08-03T11:53:02;36.80;76.00
35373;DHT22;21476;51.652;7.852;2022-08-03T11:55:29;36.60;75.60
35373;DHT22;21476;51.652;7.852;2022-08-03T11:58:00;36.60;75.30
35373;DHT22;21476;51.652;7.852;2022-08-03T12:00:29;36.60;75.30
35373;DHT22;21476;51.652;7.852;2022-08-03T12:05:40;36.50;74.30
35373;DHT22;21476;51.652;7.852;2022-08-03T12:08:07;36.60;75.40
35373;DHT22;21476;51.652;7.852;2022-08-03T12:10:35;36.60;74.70
35373;DHT22;21476;51.652;7.852;2022-08-03T12:13:02;36.40;73.70
35373;DHT22;21476;51.652;7.852;2022-08-03T12:15:31;36.20;74.20
35373;DHT22;21476;51.652;7.852;2022-08-03T12:18:16;35.80;74.70
35373;DHT22;21476;51.652;7.852;2022-08-03T12:20:43;35.40;75.10
35373;DHT22;21476;51.652;7.852;2022-08-03T12:23:10;35.50;76.90
35373;DHT22;21476;51.652;7.852;2022-08-03T12:25:38;35.40;77.00
35373;DHT22;21476;51.652;7.852;2022-08-03T12:28:16;35.60;76.30
35373;DHT22;21476;51.652;7.852;2022-08-03T12:30:45;35.50;76.80
35373;DHT22;21476;51.652;7.852;2022-08-03T12:33:25;35.40;76.30
35373;DHT22;21476;51.652;7.852;2022-08-03T12:36:11;35.40;76.90
35373;DHT22;21476;51.652;7.852;2022-08-03T12:38:38;35.40;75.90
35373;DHT22;21476;51.652;7.852;2022-08-03T12:41:11;35.70;77.60
35373;DHT22;21476;51.652;7.852;2022-08-03T12:43:47;35.80;75.40
35373;DHT22;21476;51.652;7.852;2022-08-03T12:46:17;35.90;75.70
35373;DHT22;21476;51.652;7.852;2022-08-03T12:54:21;35.50;75.60
35373;DHT22;21476;51.652;7.852;2022-08-03T12:59:25;35.50;75.10
35373;DHT22;21476;51.652;7.852;2022-08-03T13:01:51;35.40;75.60
35373;DHT22;21476;51.652;7.852;2022-08-03T13:04:32;35.40;76.40
35373;DHT22;21476;51.652;7.852;2022-08-03T13:07:04;35.30;76.40
35373;DHT22;21476;51.652;7.852;2022-08-03T13:09:44;35.20;76.10
35373;DHT22;21476;51.652;7.852;2022-08-03T13:12:18;35.10;74.50
35373;DHT22;21476;51.652;7.852;2022-08-03T13:14:46;35.20;76.50
35373;DHT22;21476;51.652;7.852;2022-08-03T13:17:12;35.10;76.00
35373;DHT22;21476;51.652;7.852;2022-08-03T13:19:39;35.10;75.20
35373;DHT22;21476;51.652;7.852;2022-08-03T13:22:23;35.00;76.30
35373;DHT22;21476;51.652;7.852;2022-08-03T13:24:53;34.80;76.00
35373;DHT22;21476;51.652;7.852;2022-08-03T13:27:31;34.60;75.70
35373;DHT22;21476;51.652;7.852;2022-08-03T13:29:57;34.60;76.20
35373;DHT22;21476;51.652;7.852;2022-08-03T13:32:23;34.80;76.10
35373;DHT22;21476;51.652;7.852;2022-08-03T13:34:49;34.70;76.20
35373;DHT22;21476;51.652;7.852;2022-08-03T13:37:15;34.70;75.70
35373;DHT22;21476;51.652;7.852;2022-08-03T13:39:41;34.60;75.50
35373;DHT22;21476;51.652;7.852;2022-08-03T13:42:07;34.30;75.70
35373;DHT22;21476;51.652;7.852;2022-08-03T13:44:33;34.30;76.20
35373;DHT22;21476;51.652;7.852;2022-08-03T13:47:02;34.50;76.90
35373;DHT22;21476;51.652;7.852;2022-08-03T13:49:28;34.50;76.10
35373;DHT22;21476;51.652;7.852;2022-08-03T13:51:57;34.30;75.20
35373;DHT22;21476;51.652;7.852;2022-08-03T13:54:23;34.00;76.60
35373;DHT22;21476;51.652;7.852;2022-08-03T13:56:52;34.00;76.90
35373;DHT22;21476;51.652;7.852;2022-08-03T13:59:23;34.00;78.00
35373;DHT22;21476;51.652;7.852;2022-08-03T14:01:50;34.00;76.80
35373;DHT22;21476;51.652;7.852;2022-08-03T14:04:17;34.00;77.30
35373;DHT22;21476;51.652;7.852;2022-08-03T14:06:43;33.90;77.40
35373;DHT22;21476;51.652;7.852;2022-08-03T14:09:10;33.70;77.80
35373;DHT22;21476;51.652;7.852;2022-08-03T14:11:36;33.70;77.10
35373;DHT22;21476;51.652;7.852;2022-08-03T14:14:02;33.70;77.40
35373;DHT22;21476;51.652;7.852;2022-08-03T14:16:27;33.70;78.90
35373;DHT22;21476;51.652;7.852;2022-08-03T14:18:53;33.70;78.30
35373;DHT22;21476;51.652;7.852;2022-08-03T14:21:18;33.70;78.80
35373;DHT22;21476;51.652;7.852;2022-08-03T14:23:44;33.60;78.90
35373;DHT22;21476;51.652;7.852;2022-08-03T14:26:10;33.50;76.30
35373;DHT22;21476;51.652;7.852;2022-08-03T14:28:36;33.40;77.90
35373;DHT22;21476;51.652;7.852;2022-08-03T14:31:02;33.20;79.60
35373;DHT22;21476;51.652;7.852;2022-08-03T14:33:28;33.10;79.10
35373;DHT22;21476;51.652;7.852;2022-08-03T14:35:54;33.10;80.20
35373;DHT22;21476;51.652;7.852;2022-08-03T14:38:20;33.00;79.50
35373;DHT22;21476;51.652;7.852;2022-08-03T14:40:46;33.00;79.70
35373;DHT22;21476;51.652;7.852;2022-08-03T14:43:12;33.10;80.10
35373;DHT22;21476;51.652;7.852;2022-08-03T14:45:39;33.10;80.50
35373;DHT22;21476;51.652;7.852;2022-08-03T14:48:05;33.10;81.10
35373;DHT22;21476;51.652;7.852;2022-08-03T14:50:30;33.00;80.10
35373;DHT22;21476;51.652;7.852;2022-08-03T14:52:56;32.90;80.00
35373;DHT22;21476;51.652;7.852;2022-08-03T14:55:22;33.00;80.90
35373;DHT22;21476;51.652;7.852;2022-08-03T14:57:48;32.80;80.90
35373;DHT22;21476;51.652;7.852;2022-08-03T15:00:14;32.70;80.20
35373;DHT22;21476;51.652;7.852;2022-08-03T15:02:40;32.60;80.10
35373;DHT22;21476;51.652;7.852;2022-08-03T15:05:06;32.70;81.50
35373;DHT22;21476;51.652;7.852;2022-08-03T15:07:32;32.60;80.50
35373;DHT22;21476;51.652;7.852;2022-08-03T15:09:58;32.70;81.20
35373;DHT22;21476;51.652;7.852;2022-08-03T15:12:24;32.70;81.80
35373;DHT22;21476;51.652;7.852;2022-08-03T15:14:50;32.60;81.90
35373;DHT22;21476;51.652;7.852;2022-08-03T15:17:16;32.50;81.60
35373;DHT22;21476;51.652;7.852;2022-08-03T15:19:41;32.50;80.40
35373;DHT22;21476;51.652;7.852;2022-08-03T15:22:07;32.50;79.90
35373;DHT22;21476;51.652;7.852;2022-08-03T15:24:33;32.40;80.90
35373;DHT22;21476;51.652;7.852;2022-08-03T15:26:58;32.40;81.80
35373;DHT22;21476;51.652;7.852;2022-08-03T15:29:24;32.40;82.00
35373;DHT22;21476;51.652;7.852;2022-08-03T15:31:50;32.40;81.60
35373;DHT22;21476;51.652;7.852;2022-08-03T15:34:16;32.30;80.90
35373;DHT22;21476;51.652;7.852;2022-08-03T15:36:42;32.30;81.40
35373;DHT22;21476;51.652;7.852;2022-08-03T15:39:08;32.20;81.50
35373;DHT22;21476;51.652;7.852;2022-08-03T15:41:34;32.30;81.30
35373;DHT22;21476;51.652;7.852;2022-08-03T15:44:00;32.20;81.20
35373;DHT22;21476;51.652;7.852;2022-08-03T15:46:26;32.10;82.80
35373;DHT22;21476;51.652;7.852;2022-08-03T15:48:52;32.10;83.60
35373;DHT22;21476;51.652;7.852;2022-08-03T15:51:17;32.10;83.30
35373;DHT22;21476;51.652;7.852;2022-08-03T15:53:43;32.00;83.50
35373;DHT22;21476;51.652;7.852;2022-08-03T15:56:09;32.00;83.70
35373;DHT22;21476;51.652;7.852;2022-08-03T15:58:36;31.90;83.70
35373;DHT22;21476;51.652;7.852;2022-08-03T16:01:03;31.90;83.80
35373;DHT22;21476;51.652;7.852;2022-08-03T16:03:29;31.80;83.40
35373;DHT22;21476;51.652;7.852;2022-08-03T16:06:04;31.70;84.10
35373;DHT22;21476;51.652;7.852;2022-08-03T16:08:31;31.70;84.50
35373;DHT22;21476;51.652;7.852;2022-08-03T16:10:57;31.70;84.20
35373;DHT22;21476;51.652;7.852;2022-08-03T16:13:23;31.70;83.80
35373;DHT22;21476;51.652;7.852;2022-08-03T16:15:50;31.60;85.00
35373;DHT22;21476;51.652;7.852;2022-08-03T16:18:15;31.60;84.90
35373;DHT22;21476;51.652;7.852;2022-08-03T16:20:41;31.60;85.70
35373;DHT22;21476;51.652;7.852;2022-08-03T16:23:07;31.70;85.60
35373;DHT22;21476;51.652;7.852;2022-08-03T16:25:32;31.70;85.80
35373;DHT22;21476;51.652;7.852;2022-08-03T16:27:58;31.80;86.20
35373;DHT22;21476;51.652;7.852;2022-08-03T16:30:24;31.80;85.40